createdAt,value
2019-05-30T00:03:22.076Z,71.17
2019-05-30T00:07:25.933Z,71.01
2019-05-30T00:11:29.497Z,70.33
2019-05-30T00:15:32.984Z,70.42
2019-05-30T00:19:36.463Z,70.10
2019-05-30T00:23:39.945Z,69.20
2019-05-30T00:27:43.416Z,68.96
2019-05-30T00:31:46.902Z,68.56
2019-05-30T00:35:50.362Z,68.25
2019-05-30T00:39:53.837Z,68.12
2019-05-30T00:43:57.843Z,68.36
2019-05-30T00:48:02.278Z,67.88
2019-05-30T00:52:07.122Z,67.98
2019-05-30T00:56:11.030Z,68.06
2019-05-30T01:00:14.576Z,68.07
2019-05-30T01:04:18.156Z,68.23
2019-05-30T01:08:21.623Z,67.78
2019-05-30T01:12:25.098Z,67.42
2019-05-30T01:16:28.580Z,67.80
2019-05-30T01:20:32.054Z,68.31
2019-05-30T01:24:35.527Z,68.57
2019-05-30T01:28:39.110Z,69.83
2019-05-30T01:32:42.593Z,70.32
2019-05-30T01:36:46.086Z,70.64
2019-05-30T01:40:49.562Z,71.27
2019-05-30T01:44:54.526Z,70.48
2019-05-30T01:48:58.214Z,70.61
2019-05-30T01:53:02.640Z,70.79
2019-05-30T01:57:06.785Z,72.05
2019-05-30T02:01:22.600Z,72.45
2019-05-30T02:05:16.011Z,72.34
2019-05-30T02:09:19.658Z,72.99
2019-05-30T02:13:23.141Z,73.41
2019-05-30T02:22:30.508Z,71.98
2019-05-30T02:26:33.979Z,71.33
2019-05-30T02:30:37.465Z,71.12
2019-05-30T02:34:40.933Z,71.34
2019-05-30T02:38:44.430Z,71.27
2019-05-30T02:42:47.917Z,71.38
2019-05-30T02:46:53.032Z,71.21
2019-05-30T02:50:56.947Z,71.20
2019-05-30T02:55:01.753Z,71.17
2019-05-30T02:59:06.072Z,70.88
2019-05-30T03:03:13.679Z,70.49
2019-05-30T03:07:16.131Z,70.66
2019-05-30T03:11:19.668Z,71.18
2019-05-30T03:15:23.591Z,71.60
2019-05-30T03:19:27.107Z,71.84
2019-05-30T03:23:31.184Z,72.59
2019-05-30T03:27:34.738Z,72.93
2019-05-30T03:31:39.540Z,72.70
2019-05-30T03:35:44.099Z,73.17
2019-05-30T03:39:48.039Z,73.48
2019-05-30T03:43:51.915Z,73.97
2019-05-30T03:47:58.447Z,73.50
2019-05-30T03:52:08.174Z,74.05
2019-05-30T03:56:16.584Z,72.68
2019-05-30T04:00:34.917Z,73.07
2019-05-30T04:04:41.447Z,73.06
2019-05-30T04:08:47.943Z,72.01
2019-05-30T04:13:14.555Z,71.72
2019-05-30T04:17:19.530Z,70.83
2019-05-30T04:21:23.225Z,71.40
2019-05-30T04:25:27.061Z,72.23
2019-05-30T04:29:30.657Z,70.71
2019-05-30T04:33:34.154Z,69.74
2019-05-30T04:37:37.618Z,69.31
2019-05-30T04:41:41.135Z,67.66
2019-05-30T04:45:44.656Z,66.92
2019-05-30T04:49:48.199Z,66.42
2019-05-30T04:53:52.043Z,65.88
2019-05-30T04:57:55.948Z,65.77
2019-05-30T05:01:59.789Z,66.79
2019-05-30T05:06:03.342Z,65.60
2019-05-30T05:10:08.849Z,65.50
2019-05-30T05:14:12.419Z,64.61
2019-05-30T05:18:16.967Z,64.15
2019-05-30T05:22:21.141Z,61.47
2019-05-30T05:26:24.718Z,61.71
2019-05-30T05:30:28.274Z,59.76
2019-05-30T05:34:31.766Z,61.00
2019-05-30T05:38:37.953Z,60.13
2019-05-30T05:42:41.754Z,59.95
2019-05-30T05:46:45.242Z,58.46
2019-05-30T05:50:48.747Z,57.51
2019-05-30T05:54:55.096Z,57.63
2019-05-30T05:58:57.949Z,55.83
2019-05-30T06:03:01.692Z,55.58
2019-05-30T06:07:05.323Z,55.25
2019-05-30T06:11:08.975Z,54.30
2019-05-30T06:15:12.746Z,53.96
2019-05-30T06:19:17.256Z,53.96
2019-05-30T06:23:21.597Z,52.46
2019-05-30T06:27:26.143Z,53.62
2019-05-30T06:31:29.781Z,53.28
2019-05-30T06:35:33.281Z,53.90
2019-05-30T06:39:37.109Z,54.49
2019-05-30T06:43:40.973Z,53.28
2019-05-30T06:47:44.804Z,53.96
2019-05-30T06:51:48.296Z,53.07
2019-05-30T06:55:51.833Z,55.08
2019-05-30T06:59:55.329Z,51.89
2019-05-30T07:03:59.622Z,53.22
2019-05-30T07:08:03.240Z,52.60
2019-05-30T07:12:07.029Z,50.76
2019-05-30T07:16:10.530Z,51.48
2019-05-30T07:20:14.852Z,50.71
2019-05-30T07:24:18.352Z,49.12
2019-05-30T07:28:21.837Z,48.74
2019-05-30T07:32:25.836Z,50.58
2019-05-30T07:36:30.338Z,50.00
2019-05-30T07:40:34.826Z,50.18
2019-05-30T07:44:38.325Z,49.14
2019-05-30T07:48:42.220Z,49.02
2019-05-30T07:52:45.720Z,48.02
2019-05-30T07:56:51.672Z,45.26
2019-05-30T08:00:55.299Z,40.24
2019-05-30T08:04:58.791Z,42.07
2019-05-30T08:09:02.384Z,43.31
2019-05-30T08:13:05.875Z,44.63
2019-05-30T08:17:09.365Z,45.22
2019-05-30T08:21:12.886Z,42.49
2019-05-30T08:25:16.538Z,45.11
2019-05-30T08:29:20.039Z,43.50
2019-05-30T08:33:23.526Z,44.10
2019-05-30T08:37:27.328Z,44.00
2019-05-30T08:41:31.181Z,44.27
2019-05-30T08:45:35.934Z,45.59
2019-05-30T08:49:40.383Z,44.21
2019-05-30T08:53:43.956Z,44.26
2019-05-30T08:57:47.743Z,43.05
2019-05-30T09:01:53.295Z,40.86
2019-05-30T09:06:05.914Z,39.57
2019-05-30T09:10:10.546Z,39.93
2019-05-30T09:14:14.074Z,41.43
2019-05-30T09:18:19.352Z,41.51
2019-05-30T09:22:23.425Z,42.25
2019-05-30T09:26:27.803Z,43.54
2019-05-30T09:30:33.359Z,43.84
2019-05-30T09:34:36.860Z,43.82
2019-05-30T09:38:41.798Z,41.72
2019-05-30T09:42:46.937Z,41.47
2019-05-30T09:46:51.445Z,42.07
2019-05-30T09:50:55.307Z,43.92
2019-05-30T09:55:00.211Z,45.00
2019-05-30T09:59:04.318Z,46.94
2019-05-30T10:03:09.327Z,47.35
2019-05-30T10:07:13.301Z,47.90
2019-05-30T10:11:17.098Z,49.22
2019-05-30T10:15:23.315Z,49.86
2019-05-30T10:19:28.235Z,49.08
2019-05-30T10:23:33.317Z,49.74
2019-05-30T10:27:37.340Z,49.41
2019-05-30T10:31:42.025Z,50.12
2019-05-30T10:35:51.297Z,49.16
2019-05-30T10:39:57.862Z,48.85
2019-05-30T10:44:00.604Z,48.46
2019-05-30T10:48:04.586Z,47.96
2019-05-30T10:52:09.721Z,46.99
2019-05-30T10:56:15.541Z,47.57
2019-05-30T11:00:22.130Z,49.44
2019-05-30T11:04:32.189Z,50.37
2019-05-30T11:08:39.988Z,52.09
2019-05-30T11:12:43.522Z,53.00
2019-05-30T11:16:48.896Z,52.98
2019-05-30T11:20:54.089Z,52.25
2019-05-30T11:24:59.354Z,52.87
2019-05-30T11:29:03.423Z,52.62
2019-05-30T11:33:06.915Z,52.54
2019-05-30T11:41:15.742Z,52.36
2019-05-30T11:45:19.577Z,53.17
2019-05-30T11:49:32.596Z,53.41
2019-05-30T11:53:36.113Z,53.96
2019-05-30T11:57:39.672Z,54.40
2019-05-30T12:01:43.219Z,54.31
2019-05-30T12:05:47.019Z,54.36
2019-05-30T12:09:50.808Z,53.01
2019-05-30T12:13:55.161Z,52.78
2019-05-30T12:17:59.534Z,53.29
2019-05-30T12:22:03.467Z,53.13
2019-05-30T12:26:06.973Z,52.45
2019-05-30T12:30:12.575Z,50.37
2019-05-30T12:34:16.371Z,51.31
2019-05-30T12:38:21.065Z,51.70
2019-05-30T12:42:26.673Z,51.53
2019-05-30T12:46:30.611Z,50.36
2019-05-30T12:50:34.218Z,49.81
2019-05-30T12:54:38.066Z,48.64
2019-05-30T12:58:42.945Z,49.69
2019-05-30T13:02:46.500Z,50.78
2019-05-30T13:06:53.824Z,51.39
2019-05-30T13:10:55.662Z,51.41
2019-05-30T13:14:59.573Z,52.18
2019-05-30T13:19:04.667Z,51.27
2019-05-30T13:23:08.197Z,49.36
2019-05-30T13:27:12.626Z,49.28
2019-05-30T13:31:17.743Z,50.60
2019-05-30T13:35:21.766Z,50.67
2019-05-30T13:39:26.551Z,51.01
2019-05-30T13:43:34.678Z,50.91
2019-05-30T13:47:39.038Z,50.47
2019-05-30T13:51:52.855Z,50.87
2019-05-30T13:55:57.655Z,51.05
2019-05-30T14:00:03.855Z,50.81
2019-05-30T14:04:10.464Z,52.42
2019-05-30T14:08:16.763Z,52.89
2019-05-30T14:12:19.824Z,52.42
2019-05-30T14:16:24.754Z,52.59
2019-05-30T14:20:29.041Z,52.27
2019-05-30T14:24:34.094Z,51.56
2019-05-30T14:28:43.111Z,52.79
2019-05-30T14:32:59.626Z,52.64
2019-05-30T14:37:31.768Z,51.97
2019-05-30T14:41:38.333Z,51.73
2019-05-30T14:45:42.239Z,50.89
2019-05-30T14:49:45.738Z,51.74
2019-05-30T14:53:49.776Z,51.70
2019-05-30T14:57:53.425Z,51.07
2019-05-30T15:01:57.047Z,51.48
2019-05-30T15:06:01.047Z,50.27
2019-05-30T15:10:08.713Z,49.52
2019-05-30T15:14:12.917Z,50.01
2019-05-30T15:18:17.416Z,49.99
2019-05-30T15:22:21.015Z,50.27
2019-05-30T15:26:24.612Z,51.26
2019-05-30T15:30:28.164Z,50.94
2019-05-30T15:34:31.737Z,51.62
2019-05-30T15:38:35.725Z,53.11
2019-05-30T15:42:39.417Z,53.10
2019-05-30T15:46:43.131Z,53.58
2019-05-30T15:50:46.603Z,54.41
2019-05-30T15:54:50.228Z,54.95
2019-05-30T15:58:53.815Z,55.40
2019-05-30T16:02:57.681Z,55.81
2019-05-30T16:07:01.491Z,56.41
2019-05-30T16:11:05.052Z,56.30
2019-05-30T16:15:09.874Z,56.76
2019-05-30T16:19:20.363Z,56.51
2019-05-30T16:23:20.456Z,56.29
2019-05-30T16:27:24.089Z,56.17
2019-05-30T16:31:27.680Z,55.57
2019-05-30T16:35:31.294Z,56.24
2019-05-30T16:39:34.828Z,56.76
2019-05-30T16:43:38.317Z,57.52
2019-05-30T16:47:41.818Z,58.49
2019-05-30T16:51:45.593Z,58.40
2019-05-30T16:55:49.084Z,59.04
2019-05-30T16:59:53.654Z,58.78
2019-05-30T17:03:57.300Z,59.36
2019-05-30T17:08:00.916Z,59.70
2019-05-30T17:12:05.475Z,59.98
2019-05-30T17:16:08.964Z,60.00
2019-05-30T17:20:13.404Z,60.47
2019-05-30T17:24:17.035Z,60.18
2019-05-30T17:28:20.476Z,60.38
2019-05-30T17:32:24.262Z,59.78
2019-05-30T17:36:28.416Z,60.01
2019-05-30T17:40:44.335Z,59.92
2019-05-30T17:44:40.729Z,60.44
2019-05-30T17:48:44.323Z,61.25
2019-05-30T17:52:48.272Z,61.48
2019-05-30T17:56:51.752Z,61.78
2019-05-30T18:00:57.243Z,62.19
2019-05-30T18:05:00.779Z,62.29
2019-05-30T18:09:07.422Z,61.90
2019-05-30T18:13:10.929Z,62.48
2019-05-30T18:17:14.419Z,62.57
2019-05-30T18:21:17.939Z,62.61
2019-05-30T18:25:23.502Z,62.67
2019-05-30T18:29:28.110Z,62.46
2019-05-30T18:33:32.574Z,63.06
2019-05-30T18:37:37.418Z,63.24
2019-05-30T18:41:40.910Z,63.43
2019-05-30T18:45:46.146Z,63.79
2019-05-30T18:49:49.699Z,64.37
2019-05-30T18:53:53.197Z,64.14
2019-05-30T18:57:57.147Z,64.32
2019-05-30T19:02:00.683Z,64.61
2019-05-30T19:06:04.667Z,64.85
2019-05-30T19:10:09.025Z,64.88
2019-05-30T19:14:12.530Z,65.42
2019-05-30T19:18:16.183Z,66.00
2019-05-30T19:22:20.665Z,65.85
2019-05-30T19:26:24.502Z,66.90
2019-05-30T19:30:28.675Z,67.32
2019-05-30T19:34:35.191Z,67.38
2019-05-30T19:38:39.035Z,67.47
2019-05-30T19:42:42.831Z,67.18
2019-05-30T19:46:46.338Z,67.68
2019-05-30T19:50:50.164Z,68.09
2019-05-30T19:54:53.741Z,68.37
2019-05-30T19:58:57.295Z,68.60
2019-05-30T20:03:00.864Z,69.00
2019-05-30T20:07:04.740Z,68.77
2019-05-30T20:11:08.515Z,69.40
2019-05-30T20:15:13.263Z,69.80
2019-05-30T20:19:16.797Z,70.02
2019-05-30T20:23:20.637Z,70.45
2019-05-30T20:27:24.425Z,70.62
2019-05-30T20:31:28.017Z,70.52
2019-05-30T20:35:34.310Z,70.30
2019-05-30T20:39:37.117Z,70.19
2019-05-30T20:43:41.051Z,69.85
2019-05-30T20:47:44.614Z,69.94
2019-05-30T20:51:48.407Z,69.50
2019-05-30T20:55:52.196Z,69.29
2019-05-30T20:59:55.987Z,69.17
2019-05-30T21:03:59.504Z,69.47
2019-05-30T21:08:06.044Z,69.65
2019-05-30T21:12:09.346Z,69.59
2019-05-30T21:16:15.806Z,69.36
2019-05-30T21:20:19.319Z,69.78
2019-05-30T21:24:23.068Z,69.57
2019-05-30T21:28:26.567Z,69.71
2019-05-30T21:32:30.444Z,69.71
2019-05-30T21:36:33.980Z,69.98
2019-05-30T21:40:38.189Z,69.81
2019-05-30T21:44:42.707Z,70.07
2019-05-30T21:48:46.965Z,70.20
2019-05-30T21:52:50.458Z,70.14
2019-05-30T21:56:54.230Z,70.15
2019-05-30T22:01:18.862Z,70.00
2019-05-30T22:05:23.038Z,70.42
2019-05-30T22:09:26.527Z,70.41
2019-05-30T22:13:30.030Z,70.34
2019-05-30T22:17:33.544Z,70.39
2019-05-30T22:21:37.048Z,70.41
2019-05-30T22:25:40.637Z,70.82
2019-05-30T22:29:44.369Z,70.98
2019-05-30T22:33:48.763Z,71.24
2019-05-30T22:37:53.120Z,70.89
2019-05-30T22:41:56.997Z,71.02
2019-05-30T22:46:00.592Z,70.87
2019-05-30T22:50:05.517Z,70.81
2019-05-30T22:54:09.066Z,70.91
2019-05-30T22:58:12.644Z,70.95
2019-05-30T23:02:16.500Z,71.29
2019-05-30T23:06:20.336Z,71.31
2019-05-30T23:10:24.148Z,71.48
2019-05-30T23:14:27.624Z,71.59
2019-05-30T23:18:31.225Z,71.72
2019-05-30T23:22:35.098Z,71.70
2019-05-30T23:26:38.637Z,71.68
2019-05-30T23:30:42.205Z,71.69
2019-05-30T23:34:46.035Z,71.44
2019-05-30T23:38:50.750Z,71.96
2019-05-30T23:42:55.123Z,71.99
2019-05-30T23:46:59.762Z,71.93
2019-05-30T23:51:03.266Z,72.29
2019-05-30T23:55:07.682Z,72.17
2019-05-30T23:59:11.463Z,72.49
